Cuovddatmohkki, Norway

5:49 PM CEST on September 18, 2014 (GMT +0200)
Banak Air Base | Change Station
CLOSE
Current Station
Airport
Location: Banak,
Elevation: 26 ft
Nearby Weather Stations

Elev 26 ft 70.07 °N, 24.97 °E | Updated 29 minutes ago

Clear
Clear
45 °F
Feels Like 42 °F
N
5
Wind Variable Wind from West
Gusts 17 mph

Today
High -- | Low -- °F
--% Chance of Precip.
Yesterday
High -- | Low -- °F
Precip. -- in
5:46 AM 6:44 PM
Waning Crescent, 26% visible
Pressure 30.18 in
Visibility -9999.0 miles
Clouds
Windchill 42 °F
Dew Point 28 °F
Humidity 53%
Rainfall 0.00 in
Snow Depth Not available.
UV Not available.
Pollen Not available.
Air Quality Not available.
Flu Activity Not available.
METAR ENNA 181520Z 28004G15KT CAVOK 07/M02 Q1022 RMK

More Conditions Fewer Conditions

Pressure 30.18 in
Visibility -9999.0 miles
Clouds
Windchill 42 °F
Dew Point 28 °F
Humidity 53%
Rainfall 0.00 in
Snow Depth Not available.
UV Not available.
Pollen Not available.
Air Quality Not available.
Flu Activity Not available.
METAR ENNA 181520Z 28004G15KT CAVOK 07/M02 Q1022 RMK

More Conditions Fewer Conditions

10-Day Weather Forecast

Almanac

Astronomy

Sep. 18, 2014 Rise Set
Actual Time 5:46 AM CEST 6:44 PM CEST
Civil Twilight 4:45 AM CEST 7:44 PM CEST
Nautical Twilight 3:24 AM CEST 9:04 PM CEST
Astronomical Twilight 1:12 AM CEST 11:06 PM CEST
Moon 11:13 PM CEST 5:32 PM CEST
Length of Visible Light 14h 58m
Length of Day
12h 57m
Tomorrow will be 8m 17s shorter.
Waning Crescent, 26% of the Moon is Illuminated
Today
Waning Crescent
Sep 24
New
Oct 1
First Quarter
Oct 8
Full
Oct 15
Last Quarter

Today's Extremes

Country Highs Country Lows

Community

WunderPhotos

Upload Photos

1,754,388 photos uploaded!

Nearby

Snow Depth

Not available.

Earthquake Activity

City Distance Mag. Time & Date
No recent earthquake activity has been reported nearby.
Minimum magnitude displayed is 2.5.

Coastal Water Temperatures

Place Temperature
No Stations Reporting

Nearby Weather Stations